Time;durP1;ratioP1;P1;durP2;ratioP2;P2;SDS_P1;SDS_P2;PMS_P1;PMS_P2;Temp;Humidity;BMP_temperature;BMP_pressure;BME280_temperature;BME280_humidity;BME280_pressure;Samples;Min_cycle;Max_cycle;Signal;HPM_P1;HPM_P2
2022/11/04 00:01:08;;;;;;;58.63;23.67;;;10.50;99.90;;;;;;5048866;28;20504;-48
2022/11/04 00:03:34;;;;;;;24.33;17.30;;;11.70;99.90;;;;;;5048357;28;20041;-51
2022/11/04 00:06:00;;;;;;;27.33;18.48;;;10.50;99.90;;;;;;5048672;28;20044;-49
2022/11/04 00:08:26;;;;;;;38.13;20.15;;;10.60;99.90;;;;;;5048407;28;20037;-49
2022/11/04 00:13:41;;;;;;;36.05;19.83;;;10.40;99.90;;;;;;5048205;28;20461;-48
2022/11/04 00:18:52;;;;;;;39.05;19.70;;;10.60;99.90;;;;;;5048603;28;20051;-52
2022/11/04 00:29:30;;;;;;;51.78;21.35;;;10.40;99.90;;;;;;5047939;28;20774;-51
2022/11/04 00:34:40;;;;;;;31.25;18.45;;;10.60;99.90;;;;;;5047529;28;20051;-48
2022/11/04 00:37:06;;;;;;;26.60;15.65;;;10.60;99.90;;;;;;5047838;28;20041;-47
2022/11/04 00:39:31;;;;;;;27.27;17.50;;;10.40;99.90;;;;;;5047753;28;20049;-48
2022/11/04 00:41:57;;;;;;;22.00;14.10;;;10.70;99.90;;;;;;5048620;28;20044;-48
2022/11/04 00:44:22;;;;;;;21.30;13.68;;;10.50;99.90;;;;;;5048352;28;20033;-49
2022/11/04 00:46:48;;;;;;;29.75;13.27;;;10.60;99.90;;;;;;5047762;28;20072;-47
2022/11/04 00:49:14;;;;;;;20.55;10.60;;;10.50;99.90;;;;;;5048105;28;20052;-47
2022/11/04 00:51:40;;;;;;;15.48;9.52;;;11.40;99.90;;;;;;5047792;28;20041;-48
2022/11/04 00:54:05;;;;;;;11.50;8.23;;;10.50;99.90;;;;;;5048048;28;20041;-47
2022/11/04 00:56:31;;;;;;;11.02;6.15;;;10.50;99.90;;;;;;5047508;28;20510;-48
2022/11/04 00:59:00;;;;;;;10.27;6.30;;;10.30;99.90;;;;;;5047674;28;20044;-48
2022/11/04 01:01:25;;;;;;;9.65;5.90;;;10.20;99.90;;;;;;5047760;28;20041;-47
2022/11/04 01:03:52;;;;;;;7.47;4.15;;;10.70;99.90;;;;;;5047639;28;20049;-47
2022/11/04 01:06:20;;;;;;;5.88;3.72;;;10.10;99.90;;;;;;5047315;28;20041;-48
2022/11/04 01:08:46;;;;;;;7.38;3.83;;;10.20;99.90;;;;;;5047575;28;20053;-48
2022/11/04 01:11:13;;;;;;;7.05;2.90;;;10.40;99.90;;;;;;5047723;28;20055;-47
2022/11/04 01:13:39;;;;;;;7.30;3.20;;;10.20;99.90;;;;;;5047670;28;20045;-47
2022/11/04 01:16:08;;;;;;;5.97;3.67;;;10.10;99.90;;;;;;5047569;28;20490;-47
2022/11/04 01:18:34;;;;;;;7.80;3.00;;;10.20;99.90;;;;;;5047482;28;20041;-47
2022/11/04 01:21:01;;;;;;;5.70;2.47;;;10.80;99.90;;;;;;5047654;28;20509;-48
2022/11/04 01:23:27;;;;;;;5.97;2.72;;;10.20;99.90;;;;;;5046603;28;20045;-47
2022/11/04 01:25:53;;;;;;;3.08;2.25;;;9.90;99.90;;;;;;5047633;28;20044;-48
2022/11/04 01:28:18;;;;;;;4.30;2.25;;;10.10;99.90;;;;;;5047630;28;20094;-50
2022/11/04 01:30:44;;;;;;;6.68;2.05;;;10.20;99.90;;;;;;5047488;28;20048;-47
2022/11/04 01:33:10;;;;;;;5.90;1.80;;;10.40;99.90;;;;;;5047760;28;20033;-47
2022/11/04 01:35:35;;;;;;;3.47;1.60;;;9.90;99.90;;;;;;5047559;28;20051;-47
2022/11/04 01:38:01;;;;;;;3.55;1.15;;;10.00;99.90;;;;;;5047715;28;20033;-48
2022/11/04 01:40:27;;;;;;;4.03;1.27;;;10.00;99.90;;;;;;5047548;28;20041;-50
2022/11/04 01:42:52;;;;;;;5.07;0.90;;;9.90;99.90;;;;;;5047409;28;20470;-49
2022/11/04 01:45:20;;;;;;;2.75;0.77;;;9.70;99.90;;;;;;5047366;28;20495;-46
2022/11/04 01:47:55;;;;;;;2.97;0.50;;;9.80;99.90;;;;;;5047358;28;20429;-51
2022/11/04 01:50:29;;;;;;;1.67;0.50;;;9.80;99.90;;;;;;5047167;28;20049;-48
2022/11/04 01:53:09;;;;;;;4.43;0.88;;;9.80;99.90;;;;;;5047203;28;20056;-47
2022/11/04 01:55:40;;;;;;;3.10;0.40;;;9.80;99.90;;;;;;5046895;28;20064;-47
2022/11/04 01:58:12;;;;;;;3.22;0.60;;;10.20;99.90;;;;;;5047539;28;20048;-48
2022/11/04 02:00:39;;;;;;;2.42;0.68;;;9.80;99.90;;;;;;5047260;28;20041;-47
2022/11/04 02:03:10;;;;;;;2.10;0.38;;;9.70;99.90;;;;;;5047402;28;20128;-47
2022/11/04 02:05:36;;;;;;;4.80;0.40;;;10.40;99.90;;;;;;5047167;28;20079;-48
2022/11/04 02:08:04;;;;;;;5.47;1.17;;;10.30;99.90;;;;;;5047579;28;20056;-48
2022/11/04 02:10:30;;;;;;;2.20;0.57;;;9.60;99.90;;;;;;5047320;28;20056;-46
2022/11/04 02:12:59;;;;;;;2.88;0.40;;;9.60;99.90;;;;;;5046758;28;20071;-47
2022/11/04 02:16:02;;;;;;;3.00;0.30;;;9.60;99.90;;;;;;5047181;28;20139;-48
2022/11/04 02:18:39;;;;;;;2.90;0.57;;;9.60;99.90;;;;;;5049374;28;20048;-47
2022/11/04 02:21:30;;;;;;;3.40;0.52;;;9.50;99.90;;;;;;5050249;28;20055;-47
2022/11/04 02:24:24;;;;;;;1.70;0.43;;;9.70;99.90;;;;;;5048933;28;20075;-46
2022/11/04 02:27:19;;;;;;;4.03;0.73;;;9.60;99.90;;;;;;5050219;28;20044;-49
2022/11/04 02:30:08;;;;;;;3.85;0.73;;;9.60;99.90;;;;;;5050058;28;20402;-48
2022/11/04 02:32:46;;;;;;;4.22;0.45;;;9.60;99.90;;;;;;5050350;28;20045;-47
2022/11/04 02:35:40;;;;;;;4.85;0.80;;;9.50;99.90;;;;;;5050038;28;20033;-49
2022/11/04 02:38:14;;;;;;;2.47;0.30;;;9.60;99.90;;;;;;5049948;28;20041;-48
2022/11/04 02:41:07;;;;;;;3.65;0.28;;;9.50;99.90;;;;;;5049972;28;20040;-47
2022/11/04 02:43:49;;;;;;;4.03;0.40;;;9.50;99.90;;;;;;5049999;28;20152;-47
2022/11/04 02:46:31;;;;;;;2.33;0.32;;;9.60;99.90;;;;;;5050002;28;20041;-47
2022/11/04 02:49:09;;;;;;;7.47;0.38;;;9.80;99.90;;;;;;5049788;28;20029;-47
2022/11/04 02:51:42;;;;;;;1.33;0.20;;;9.70;99.90;;;;;;5049661;28;20127;-48
2022/11/04 02:54:29;;;;;;;2.75;0.20;;;9.80;99.90;;;;;;5050130;28;20045;-48
2022/11/04 02:56:58;;;;;;;4.45;0.20;;;9.60;99.90;;;;;;5049771;28;20049;-46
2022/11/04 02:59:49;;;;;;;0.88;0.20;;;9.60;99.90;;;;;;5050290;28;20187;-47
2022/11/04 03:02:21;;;;;;;2.33;0.10;;;9.60;99.90;;;;;;5050154;28;20052;-48
2022/11/04 03:04:51;;;;;;;2.20;0.10;;;9.70;99.90;;;;;;5049796;28;20033;-48
2022/11/04 03:07:21;;;;;;;2.03;0.17;;;9.70;99.90;;;;;;5049806;28;20048;-49
2022/11/04 03:09:54;;;;;;;2.03;0.20;;;9.60;99.90;;;;;;5049862;28;20045;-48
2022/11/04 03:12:25;;;;;;;2.20;0.25;;;9.60;99.90;;;;;;5049698;28;20437;-48
2022/11/04 03:14:56;;;;;;;2.77;0.20;;;9.50;99.90;;;;;;5049330;28;20486;-46
2022/11/04 03:17:45;;;;;;;2.38;0.10;;;9.50;99.90;;;;;;5049675;28;20267;-47
2022/11/04 03:20:19;;;;;;;1.00;0.10;;;9.60;99.90;;;;;;5049633;28;20057;-47
2022/11/04 03:22:45;;;;;;;0.28;0.10;;;10.00;99.90;;;;;;5048991;28;20055;-47
2022/11/04 03:25:11;;;;;;;1.45;0.30;;;9.70;99.90;;;;;;5049082;28;20045;-48
2022/11/04 03:28:00;;;;;;;3.28;0.20;;;9.50;99.90;;;;;;5049030;28;20486;-47
2022/11/04 03:30:36;;;;;;;3.80;0.40;;;9.60;99.90;;;;;;5049309;28;20044;-45
2022/11/04 03:33:19;;;;;;;7.45;0.70;;;10.40;99.90;;;;;;5049117;28;20115;-47
2022/11/04 03:35:45;;;;;;;4.95;0.73;;;9.60;99.90;;;;;;5049471;28;20076;-48
2022/11/04 03:38:11;;;;;;;4.05;0.80;;;9.70;99.90;;;;;;5049345;28;20068;-47
2022/11/04 03:40:37;;;;;;;8.10;1.85;;;9.70;99.90;;;;;;5049268;28;20536;-47
2022/11/04 03:43:30;;;;;;;5.03;1.30;;;9.80;99.90;;;;;;5049104;28;20178;-47
2022/11/04 03:45:55;;;;;;;7.78;1.77;;;9.70;99.90;;;;;;5047354;28;20114;-48
2022/11/04 03:48:22;;;;;;;4.70;1.20;;;9.80;99.90;;;;;;5049413;28;20041;-49
2022/11/04 03:50:49;;;;;;;6.78;1.67;;;9.80;99.90;;;;;;5049777;28;20174;-49
2022/11/04 03:53:20;;;;;;;4.53;0.85;;;10.20;99.90;;;;;;5049257;28;20045;-46
2022/11/04 03:56:04;;;;;;;7.35;1.60;;;9.60;99.90;;;;;;5049365;28;20080;-47
2022/11/04 03:58:36;;;;;;;3.80;0.95;;;9.60;99.90;;;;;;5049091;28;20048;-48
2022/11/04 04:01:22;;;;;;;5.00;1.45;;;9.60;99.90;;;;;;5048830;28;20048;-46
2022/11/04 04:04:00;;;;;;;4.60;1.42;;;9.60;99.90;;;;;;5041290;28;20470;-47
2022/11/04 04:06:32;;;;;;;2.58;0.73;;;9.70;99.90;;;;;;5048677;28;20045;-47
2022/11/04 04:09:17;;;;;;;3.97;0.60;;;9.70;99.90;;;;;;5048216;28;20052;-46
2022/11/04 04:11:46;;;;;;;4.97;0.70;;;9.70;99.90;;;;;;5048476;28;20107;-45
2022/11/04 04:14:38;;;;;;;1.42;0.40;;;9.70;99.90;;;;;;5048378;28;20040;-46
2022/11/04 04:17:28;;;;;;;2.55;0.28;;;10.60;99.90;;;;;;5048235;28;20067;-46
2022/11/04 04:20:01;;;;;;;2.03;0.30;;;9.70;99.90;;;;;;5048039;28;20049;-46
2022/11/04 04:22:32;;;;;;;0.73;0.20;;;9.70;99.90;;;;;;5046820;28;20130;-46
2022/11/04 04:27:47;;;;;;;3.60;0.20;;;9.50;99.90;;;;;;5048425;28;20087;-47
2022/11/04 04:30:15;;;;;;;3.50;0.17;;;9.80;99.90;;;;;;5030072;28;20053;-47
2022/11/04 04:32:47;;;;;;;1.33;0.20;;;9.40;99.90;;;;;;5048209;28;20053;-45
2022/11/04 04:46:30;;;;;;;4.97;0.30;;;9.20;99.90;;;;;;5048469;28;20098;-45
2022/11/04 04:49:04;;;;;;;0.35;0.10;;;9.30;99.90;;;;;;5048506;28;20538;-46
2022/11/04 04:51:30;;;;;;;3.15;0.30;;;9.20;99.90;;;;;;5048407;28;20044;-45
2022/11/04 04:53:56;;;;;;;2.25;0.10;;;9.10;99.90;;;;;;5048022;28;20049;-46
2022/11/04 04:56:21;;;;;;;1.85;0.10;;;9.30;99.90;;;;;;5047870;28;20157;-45
2022/11/04 04:58:47;;;;;;;1.65;0.10;;;9.20;99.90;;;;;;5048028;28;20102;-49
2022/11/04 05:01:12;;;;;;;1.55;0.10;;;9.20;99.90;;;;;;5047802;28;20076;-47
2022/11/04 05:03:38;;;;;;;0.90;0.10;;;9.20;99.90;;;;;;5047717;28;20072;-47
2022/11/04 05:06:04;;;;;;;1.35;0.20;;;9.20;99.90;;;;;;5047022;28;20517;-48
2022/11/04 05:08:29;;;;;;;2.20;0.30;;;9.20;99.90;;;;;;5047422;28;20170;-49
2022/11/04 05:10:55;;;;;;;2.47;0.20;;;8.90;99.90;;;;;;5047702;28;20386;-46
2022/11/04 05:13:28;;;;;;;4.20;0.85;;;9.50;99.90;;;;;;5047099;28;20053;-46
2022/11/04 05:15:56;;;;;;;1.42;0.10;;;9.50;99.90;;;;;;5047341;28;20049;-49
2022/11/04 05:18:22;;;;;;;1.08;0.10;;;10.10;99.90;;;;;;5047730;28;20072;-49
2022/11/04 05:20:48;;;;;;;2.55;0.25;;;9.30;99.90;;;;;;5047209;28;20534;-49
2022/11/04 05:23:13;;;;;;;1.58;0.20;;;9.20;99.90;;;;;;5047467;28;20132;-49
2022/11/04 05:25:40;;;;;;;3.05;0.35;;;9.50;99.90;;;;;;5047829;28;20490;-45
2022/11/04 05:28:06;;;;;;;1.75;0.10;;;9.10;99.90;;;;;;5047449;28;20045;-50
2022/11/04 05:30:33;;;;;;;2.20;0.10;;;9.40;99.90;;;;;;5047254;28;20669;-46
2022/11/04 05:32:58;;;;;;;1.05;0.10;;;9.90;99.90;;;;;;5047267;28;20047;-48
2022/11/04 05:35:24;;;;;;;2.72;0.13;;;9.50;99.90;;;;;;5046911;28;20037;-50
2022/11/04 05:37:50;;;;;;;2.00;0.20;;;9.00;99.90;;;;;;5047230;28;20102;-48
2022/11/04 05:40:15;;;;;;;1.17;0.10;;;8.90;99.90;;;;;;5047111;28;20084;-45
2022/11/04 05:42:41;;;;;;;1.85;0.13;;;8.90;99.90;;;;;;5047217;28;20423;-48
2022/11/04 05:45:07;;;;;;;1.88;0.20;;;9.20;99.90;;;;;;5047250;28;20090;-48
2022/11/04 05:47:33;;;;;;;1.70;0.20;;;8.80;99.90;;;;;;5046930;28;20087;-48
2022/11/04 05:49:58;;;;;;;0.77;0.40;;;8.60;99.90;;;;;;5047254;28;20077;-50
2022/11/04 05:52:24;;;;;;;4.15;0.22;;;9.30;99.90;;;;;;5049081;28;20968;-48
2022/11/04 05:54:50;;;;;;;0.47;0.10;;;8.60;99.90;;;;;;5051180;28;20387;-47
2022/11/04 05:57:15;;;;;;;3.35;0.15;;;9.30;99.90;;;;;;5050073;28;20071;-52
2022/11/04 05:59:41;;;;;;;2.38;0.20;;;8.50;99.90;;;;;;5050704;28;20041;-49
2022/11/04 06:02:07;;;;;;;3.65;0.20;;;8.40;99.90;;;;;;5050861;28;20047;-48
2022/11/04 06:04:32;;;;;;;1.77;0.20;;;8.40;99.90;;;;;;5050500;28;20045;-48
2022/11/04 06:06:58;;;;;;;1.48;0.20;;;8.40;99.90;;;;;;5050931;28;20048;-51
2022/11/04 06:09:37;;;;;;;3.28;0.20;;;8.90;99.90;;;;;;5050600;28;20037;-49
2022/11/04 06:12:14;;;;;;;2.88;0.20;;;8.30;99.90;;;;;;5049464;28;20060;-48
2022/11/04 06:14:43;;;;;;;3.05;0.20;;;8.20;99.90;;;;;;5050604;28;20124;-50
2022/11/04 06:17:20;;;;;;;3.00;0.20;;;8.10;99.90;;;;;;5050616;28;20055;-47
2022/11/04 06:19:47;;;;;;;1.95;0.20;;;7.90;99.90;;;;;;5050601;28;20044;-51
2022/11/04 06:22:15;;;;;;;1.45;0.38;;;7.90;99.90;;;;;;5050061;28;20045;-48
2022/11/04 06:24:41;;;;;;;2.90;0.30;;;7.80;99.90;;;;;;5049804;28;20053;-49
2022/11/04 06:27:07;;;;;;;5.88;0.30;;;8.00;99.90;;;;;;5050376;28;20119;-49
2022/11/04 06:29:33;;;;;;;1.90;0.30;;;7.90;99.90;;;;;;5049850;28;20457;-51
2022/11/04 06:31:59;;;;;;;1.35;0.30;;;7.70;99.90;;;;;;5050145;28;20124;-47
2022/11/04 06:34:24;;;;;;;3.85;0.43;;;8.00;99.90;;;;;;5049683;28;20064;-50
2022/11/04 06:36:50;;;;;;;3.95;0.55;;;7.80;99.90;;;;;;5049626;28;20043;-50
2022/11/04 06:39:16;;;;;;;6.20;0.98;;;7.80;99.90;;;;;;5049705;28;20053;-48
2022/11/04 06:41:41;;;;;;;2.88;0.28;;;8.60;99.90;;;;;;5049801;28;20045;-48
2022/11/04 06:44:07;;;;;;;4.72;0.30;;;7.80;99.90;;;;;;5050630;28;20049;-48
2022/11/04 06:46:40;;;;;;;5.38;0.60;;;7.80;99.90;;;;;;5050085;28;20036;-47
2022/11/04 06:49:10;;;;;;;2.30;0.52;;;7.70;99.90;;;;;;5049643;28;20512;-48
2022/11/04 06:51:36;;;;;;;3.63;0.40;;;7.40;99.90;;;;;;5049522;28;20044;-50
2022/11/04 06:54:02;;;;;;;3.83;0.30;;;7.60;99.90;;;;;;5049624;28;20410;-47
2022/11/04 06:56:27;;;;;;;3.63;0.40;;;7.60;99.90;;;;;;5049475;28;20057;-51
2022/11/04 06:58:54;;;;;;;2.00;0.30;;;7.60;99.90;;;;;;5049418;28;20120;-49
2022/11/04 07:01:21;;;;;;;6.35;0.40;;;7.60;99.90;;;;;;5049644;28;20755;-48
2022/11/04 07:03:58;;;;;;;1.48;0.25;;;8.30;99.90;;;;;;5049098;28;20088;-47
2022/11/04 07:06:25;;;;;;;1.67;0.20;;;7.60;99.90;;;;;;5049415;28;20041;-50
2022/11/04 07:08:52;;;;;;;5.38;0.30;;;7.50;99.90;;;;;;5049095;28;20498;-49
2022/11/04 07:11:20;;;;;;;2.35;0.38;;;7.60;99.90;;;;;;5049356;28;20453;-47
2022/11/04 07:13:46;;;;;;;4.78;0.43;;;7.40;99.90;;;;;;5048886;28;20045;-47
2022/11/04 07:16:12;;;;;;;3.03;0.40;;;7.50;99.90;;;;;;5049164;28;20045;-49
2022/11/04 07:18:38;;;;;;;3.42;0.40;;;7.50;99.90;;;;;;5049127;28;20159;-50
2022/11/04 07:21:04;;;;;;;2.80;0.30;;;7.60;99.90;;;;;;5049389;28;20055;-47
2022/11/04 07:23:30;;;;;;;3.65;0.50;;;7.60;99.90;;;;;;5049211;28;20148;-47
2022/11/04 07:26:03;;;;;;;2.80;0.63;;;7.70;99.90;;;;;;5049538;28;20636;-48
2022/11/04 07:28:29;;;;;;;2.78;0.38;;;7.60;99.90;;;;;;5049405;28;20052;-47
2022/11/04 07:30:59;;;;;;;2.03;0.20;;;7.70;99.90;;;;;;5049706;28;20045;-46
2022/11/04 07:33:25;;;;;;;5.97;0.50;;;7.70;99.90;;;;;;5049354;28;20665;-47
2022/11/04 07:35:52;;;;;;;2.28;0.50;;;8.10;99.90;;;;;;5048142;28;20044;-47
2022/11/04 07:38:18;;;;;;;1.25;0.30;;;8.10;99.90;;;;;;5047642;28;20486;-47
2022/11/04 07:40:44;;;;;;;4.75;0.57;;;8.20;99.90;;;;;;5049082;28;20041;-46
2022/11/04 07:43:10;;;;;;;3.70;0.75;;;8.10;99.90;;;;;;5049328;28;20476;-47
2022/11/04 07:45:36;;;;;;;3.63;0.50;;;8.10;99.90;;;;;;5048973;28;20049;-48
2022/11/04 07:48:02;;;;;;;3.78;0.50;;;8.30;99.90;;;;;;5049203;28;20041;-47
2022/11/04 07:50:27;;;;;;;7.45;1.27;;;8.20;99.90;;;;;;5048202;28;20029;-46
2022/11/04 07:52:53;;;;;;;5.97;1.02;;;7.90;99.90;;;;;;5049251;28;20505;-50
2022/11/04 07:55:19;;;;;;;4.00;1.20;;;8.10;99.90;;;;;;5049021;28;20040;-47
2022/11/04 07:57:46;;;;;;;4.90;1.20;;;8.00;99.90;;;;;;5049072;28;20056;-47
2022/11/04 08:00:14;;;;;;;3.95;0.70;;;8.70;99.90;;;;;;5048912;28;20052;-47
2022/11/04 08:02:43;;;;;;;8.18;1.35;;;8.10;99.90;;;;;;5048537;28;20040;-47
2022/11/04 08:05:09;;;;;;;7.13;1.25;;;8.10;99.90;;;;;;5048989;28;20050;-48
2022/11/04 08:07:35;;;;;;;11.15;1.67;;;8.10;99.90;;;;;;5048578;28;20048;-47
2022/11/04 08:10:01;;;;;;;3.25;0.88;;;8.10;99.90;;;;;;5048546;28;20041;-47
2022/11/04 08:12:26;;;;;;;5.85;1.33;;;8.20;99.90;;;;;;5048239;28;20386;-48
2022/11/04 08:14:52;;;;;;;8.73;1.67;;;8.60;99.90;;;;;;5047409;28;20123;-47
2022/11/04 08:17:18;;;;;;;5.38;1.17;;;8.40;99.90;;;;;;5048335;28;20463;-46
2022/11/04 08:19:44;;;;;;;6.65;1.33;;;8.60;99.90;;;;;;5048240;28;20448;-47
2022/11/04 08:22:09;;;;;;;4.05;1.00;;;8.50;99.90;;;;;;5048398;28;20041;-47
2022/11/04 08:24:35;;;;;;;4.75;1.25;;;8.90;99.90;;;;;;5048059;28;20398;-48
2022/11/04 08:27:03;;;;;;;6.25;1.63;;;8.70;99.90;;;;;;5048171;28;20052;-46
2022/11/04 08:29:29;;;;;;;5.78;0.93;;;8.60;99.90;;;;;;5048075;28;20045;-47
2022/11/04 08:31:55;;;;;;;4.18;0.95;;;8.70;99.90;;;;;;5047752;28;20090;-47
2022/11/04 08:34:20;;;;;;;4.82;1.00;;;8.80;99.90;;;;;;5047573;28;20139;-50
2022/11/04 08:36:46;;;;;;;4.07;0.80;;;8.80;99.90;;;;;;5046013;28;20044;-47
2022/11/04 08:39:12;;;;;;;2.30;0.60;;;8.90;99.90;;;;;;5043687;28;20052;-46
2022/11/04 08:41:41;;;;;;;3.42;0.60;;;10.10;99.90;;;;;;5045253;28;20119;-46
2022/11/04 08:44:09;;;;;;;7.03;0.90;;;8.90;99.90;;;;;;5047277;28;20132;-44
2022/11/04 08:46:37;;;;;;;3.15;0.77;;;9.70;99.90;;;;;;5046404;28;20055;-50
2022/11/04 08:49:03;;;;;;;3.90;0.60;;;9.10;99.90;;;;;;5046299;28;20061;-44
2022/11/04 08:51:30;;;;;;;2.08;0.50;;;9.00;99.90;;;;;;5026531;28;20119;-47
2022/11/04 08:53:57;;;;;;;4.07;0.68;;;9.20;99.90;;;;;;5022941;28;20072;-45
2022/11/04 08:56:25;;;;;;;3.75;0.45;;;9.30;99.90;;;;;;5023935;28;20065;-45
2022/11/04 08:58:52;;;;;;;6.82;0.90;;;9.40;99.90;;;;;;5024185;28;20941;-49
2022/11/04 09:01:19;;;;;;;4.57;0.52;;;9.40;99.90;;;;;;5024251;28;20049;-48
2022/11/04 09:03:45;;;;;;;2.78;0.45;;;9.50;99.90;;;;;;5023798;28;20685;-50
2022/11/04 09:06:16;;;;;;;3.05;0.30;;;9.50;99.90;;;;;;5024373;28;20087;-46
2022/11/04 09:08:42;;;;;;;4.15;0.50;;;9.60;99.90;;;;;;5022252;28;20099;-45
2022/11/04 09:11:10;;;;;;;4.07;0.57;;;9.60;99.90;;;;;;5005827;28;20056;-47
2022/11/04 09:13:37;;;;;;;2.80;0.40;;;10.30;99.90;;;;;;5005609;28;20056;-43
2022/11/04 09:16:03;;;;;;;4.68;0.57;;;9.80;99.90;;;;;;5023109;28;20754;-46
2022/11/04 09:18:29;;;;;;;6.65;0.63;;;9.90;99.90;;;;;;5022094;28;20045;-44
2022/11/04 09:20:59;;;;;;;6.50;0.68;;;9.90;99.90;;;;;;5022357;28;20606;-44
2022/11/04 09:23:25;;;;;;;3.55;0.55;;;9.90;99.90;;;;;;5023623;28;20050;-44
2022/11/04 09:25:51;;;;;;;3.50;0.50;;;10.70;99.90;;;;;;5023243;28;20046;-47
2022/11/04 09:28:17;;;;;;;3.88;0.50;;;10.10;99.90;;;;;;5027556;28;20372;-47
2022/11/04 09:30:42;;;;;;;5.82;0.73;;;10.20;99.90;;;;;;5027261;28;20144;-46
2022/11/04 09:33:08;;;;;;;3.58;0.65;;;10.00;99.90;;;;;;5027379;28;20045;-47
2022/11/04 09:35:34;;;;;;;3.13;0.55;;;10.20;99.90;;;;;;5025963;28;20405;-46
2022/11/04 09:38:00;;;;;;;4.65;0.60;;;10.70;99.90;;;;;;5027125;28;20045;-45
2022/11/04 09:40:27;;;;;;;1.50;0.40;;;10.30;99.90;;;;;;5027820;28;20145;-47
2022/11/04 09:43:04;;;;;;;3.25;1.20;;;10.20;99.90;;;;;;5027598;28;20045;-44
2022/11/04 09:45:31;;;;;;;3.63;0.85;;;10.50;99.90;;;;;;5027535;28;20080;-45
2022/11/04 09:48:17;;;;;;;5.75;1.10;;;10.60;99.90;;;;;;5027287;28;20068;-49
2022/11/04 09:50:47;;;;;;;4.70;0.85;;;10.60;99.90;;;;;;5026948;28;20054;-45
2022/11/04 09:53:23;;;;;;;4.28;1.20;;;10.70;99.90;;;;;;5018169;28;20396;-43
2022/11/04 09:56:04;;;;;;;5.63;1.00;;;10.80;99.90;;;;;;5026252;28;20049;-44
2022/11/04 09:58:35;;;;;;;4.72;1.20;;;10.80;99.90;;;;;;5008773;28;20800;-43
2022/11/04 10:01:26;;;;;;;6.00;0.82;;;10.90;99.90;;;;;;5026810;28;20049;-45
2022/11/04 10:03:55;;;;;;;3.22;0.93;;;11.00;99.90;;;;;;5027173;28;20049;-44
2022/11/04 10:06:34;;;;;;;5.35;0.77;;;11.00;99.90;;;;;;5026822;28;20830;-46
2022/11/04 10:09:00;;;;;;;6.97;1.40;;;11.10;99.90;;;;;;5027196;28;20046;-44
2022/11/04 10:11:57;;;;;;;4.15;1.30;;;11.40;99.90;;;;;;5026820;28;20059;-45
2022/11/04 10:14:40;;;;;;;4.95;1.20;;;11.20;99.90;;;;;;5026831;28;20088;-44
2022/11/04 10:17:26;;;;;;;5.38;1.90;;;11.20;99.90;;;;;;5025046;28;20509;-42
2022/11/04 10:19:58;;;;;;;5.68;2.13;;;11.10;99.90;;;;;;5023057;28;20053;-43
2022/11/04 10:22:28;;;;;;;;;;;11.70;99.90;;;;;;5027852;28;20042;-43
2022/11/04 10:25:15;;;;;;;7.93;3.03;;;11.00;99.90;;;;;;5026508;28;19928;-45
2022/11/04 10:27:46;;;;;;;10.35;3.45;;;11.10;99.90;;;;;;5027279;28;20048;-45
2022/11/04 10:30:19;;;;;;;6.68;3.15;;;11.00;99.90;;;;;;5026471;28;20068;-44
2022/11/04 10:33:12;;;;;;;6.55;2.78;;;11.10;99.90;;;;;;5026575;28;20045;-40
2022/11/04 10:35:48;;;;;;;5.63;3.67;;;11.10;99.90;;;;;;5026340;28;20038;-39
2022/11/04 10:38:32;;;;;;;6.50;3.92;;;11.30;99.90;;;;;;5025411;28;20091;-39
2022/11/04 10:40:58;;;;;;;7.32;4.45;;;11.30;99.90;;;;;;5026353;28;20390;-43
2022/11/04 10:43:35;;;;;;;9.15;3.85;;;10.90;99.90;;;;;;5026570;28;20042;-44
2022/11/04 10:46:36;;;;;;;8.93;3.88;;;10.90;99.90;;;;;;5026297;28;20132;-40
2022/11/04 10:49:35;;;;;;;9.40;4.28;;;11.00;99.90;;;;;;5026486;28;20340;-44
2022/11/04 10:52:01;;;;;;;8.65;4.78;;;11.10;99.90;;;;;;5026219;28;20470;-43
2022/11/04 10:54:29;;;;;;;9.70;4.65;;;11.40;99.90;;;;;;5001325;28;20427;-45
2022/11/04 10:56:55;;;;;;;8.50;3.70;;;11.50;99.90;;;;;;5025747;28;20609;-43
2022/11/04 10:59:31;;;;;;;9.38;4.50;;;11.40;99.90;;;;;;5026493;28;20141;-44
2022/11/04 11:01:59;;;;;;;8.20;3.75;;;11.30;99.90;;;;;;5026790;28;20076;-45
2022/11/04 11:04:34;;;;;;;7.07;4.18;;;11.50;99.90;;;;;;5026166;28;20045;-44
2022/11/04 11:07:05;;;;;;;10.85;4.45;;;11.50;99.90;;;;;;5025080;28;20050;-51
2022/11/04 11:09:35;;;;;;;8.88;5.00;;;11.60;99.90;;;;;;5026411;28;20040;-50
2022/11/04 11:12:12;;;;;;;7.35;3.15;;;11.50;99.90;;;;;;5026366;28;20544;-50
2022/11/04 11:14:40;;;;;;;6.57;4.38;;;11.40;99.90;;;;;;5025689;28;20503;-44
2022/11/04 11:17:36;;;;;;;10.15;4.95;;;11.20;99.90;;;;;;5025465;28;20596;-47
2022/11/04 11:20:19;;;;;;;7.68;4.45;;;11.10;99.90;;;;;;5025783;28;20052;-44
2022/11/04 11:22:47;;;;;;;7.53;4.55;;;12.50;99.90;;;;;;5026523;28;20430;-44
2022/11/04 11:25:19;;;;;;;8.07;4.57;;;11.00;99.90;;;;;;5028548;28;20453;-45
2022/11/04 11:28:01;;;;;;;8.15;3.47;;;11.00;99.90;;;;;;5028634;28;20060;-44
2022/11/04 11:30:28;;;;;;;7.63;4.45;;;11.00;99.90;;;;;;5027187;28;20045;-44
2022/11/04 11:33:26;;;;;;;6.95;3.97;;;11.00;99.90;;;;;;5028331;28;20487;-49
2022/11/04 11:36:20;;;;;;;10.05;4.40;;;10.90;99.90;;;;;;5026286;28;20212;-45
2022/11/04 11:39:13;;;;;;;8.45;4.47;;;10.90;99.90;;;;;;5028473;28;20041;-44
2022/11/04 11:41:49;;;;;;;12.77;6.15;;;10.80;99.90;;;;;;5028387;28;20124;-46
2022/11/04 11:44:22;;;;;;;15.15;8.73;;;10.80;99.90;;;;;;5028022;28;20077;-45
2022/11/04 11:46:57;;;;;;;14.60;8.57;;;10.80;99.90;;;;;;5027608;28;20045;-46
2022/11/04 11:49:27;;;;;;;27.40;10.93;;;11.00;99.90;;;;;;5027557;28;20518;-46
2022/11/04 11:51:54;;;;;;;22.63;9.68;;;10.70;99.90;;;;;;5027680;28;20493;-45
2022/11/04 11:54:35;;;;;;;17.95;7.00;;;10.90;99.90;;;;;;5027825;28;20052;-49
2022/11/04 11:57:11;;;;;;;13.98;5.03;;;11.00;99.90;;;;;;5027404;28;20845;-47
2022/11/04 12:00:15;;;;;;;13.93;6.93;;;10.50;99.90;;;;;;5027849;28;20045;-49
2022/11/04 12:02:58;;;;;;;17.45;7.72;;;10.60;99.90;;;;;;5016066;28;20060;-48
2022/11/04 12:05:38;;;;;;;19.08;7.90;;;10.80;99.90;;;;;;5025783;28;20045;-45
2022/11/04 12:08:14;;;;;;;16.80;6.50;;;11.00;99.90;;;;;;5027201;28;20048;-46
2022/11/04 12:10:43;;;;;;;12.85;5.72;;;11.20;99.90;;;;;;5027313;28;20049;-46
2022/11/04 12:13:31;;;;;;;16.63;7.30;;;11.20;99.90;;;;;;5027346;28;20057;-46
2022/11/04 12:16:20;;;;;;;17.45;8.10;;;11.40;99.90;;;;;;5027212;28;20433;-46
2022/11/04 12:19:03;;;;;;;25.05;8.05;;;11.70;99.90;;;;;;5027526;28;20399;-44
2022/11/04 12:21:59;;;;;;;18.15;8.10;;;11.40;99.90;;;;;;5025617;28;20812;-43
2022/11/04 12:24:31;;;;;;;17.13;6.53;;;11.50;99.90;;;;;;5018389;28;20126;-42
2022/11/04 12:27:12;;;;;;;15.15;4.35;;;11.50;99.90;;;;;;5026606;28;20612;-43
2022/11/04 12:30:19;;;;;;;12.82;3.33;;;11.60;99.90;;;;;;5028154;28;20053;-42
2022/11/04 12:32:54;;;;;;;11.23;3.92;;;11.60;99.90;;;;;;5005749;28;20050;-43
2022/11/04 12:35:52;;;;;;;11.82;3.95;;;11.30;99.90;;;;;;5005328;28;20167;-42
2022/11/04 12:38:38;;;;;;;7.78;1.85;;;11.00;99.90;;;;;;5022660;28;20716;-43
2022/11/04 12:41:44;;;;;;;11.60;1.35;;;10.90;99.90;;;;;;5028394;28;20519;-45
2022/11/04 12:44:15;;;;;;;10.10;2.08;;;10.80;99.90;;;;;;5026631;28;20052;-42
2022/11/04 12:46:45;;;;;;;4.45;1.00;;;10.80;99.90;;;;;;5027914;28;20046;-41
2022/11/04 12:49:29;;;;;;;11.60;1.02;;;11.40;99.90;;;;;;5027239;28;20049;-40
2022/11/04 12:52:28;;;;;;;6.05;1.00;;;11.70;99.90;;;;;;5027432;28;20041;-41
2022/11/04 12:55:26;;;;;;;5.15;0.75;;;10.70;99.90;;;;;;5018441;28;20061;-42
2022/11/04 12:58:05;;;;;;;5.53;1.00;;;10.70;99.90;;;;;;5027011;28;20426;-49
2022/11/04 13:00:34;;;;;;;7.88;0.85;;;10.60;99.90;;;;;;5027047;28;20083;-43
2022/11/04 13:03:08;;;;;;;8.20;1.02;;;11.20;99.90;;;;;;5026823;28;20041;-45
2022/11/04 13:05:57;;;;;;;4.38;0.60;;;10.60;99.90;;;;;;5026913;28;20060;-46
2022/11/04 13:08:36;;;;;;;7.03;1.65;;;10.60;99.90;;;;;;5026681;28;20061;-44
2022/11/04 13:11:37;;;;;;;6.30;0.95;;;9.90;99.90;;;;;;5027449;28;20041;-47
2022/11/04 13:14:10;;;;;;;9.77;1.00;;;9.80;99.90;;;;;;5026133;28;20053;-46
2022/11/04 13:16:40;;;;;;;7.25;0.90;;;9.90;99.90;;;;;;5027413;28;20037;-44
2022/11/04 13:19:33;;;;;;;7.32;0.70;;;9.80;99.90;;;;;;5027693;28;20463;-45
2022/11/04 13:22:06;;;;;;;8.10;0.57;;;9.60;99.90;;;;;;5027752;28;20080;-42
2022/11/04 13:24:36;;;;;;;5.38;0.80;;;10.10;99.90;;;;;;5027358;28;20057;-46
2022/11/04 13:27:14;;;;;;;3.45;0.68;;;9.30;99.90;;;;;;5027369;28;20049;-43
2022/11/04 13:29:41;;;;;;;3.47;0.65;;;10.30;99.90;;;;;;5027700;28;20053;-43
2022/11/04 13:32:12;;;;;;;3.85;1.48;;;10.00;99.90;;;;;;5027673;28;20103;-43
2022/11/04 13:34:53;;;;;;;2.63;0.65;;;9.50;99.90;;;;;;5027430;28;20056;-44
2022/11/04 13:37:28;;;;;;;4.40;0.60;;;9.10;99.90;;;;;;5027427;28;20037;-44
2022/11/04 13:39:58;;;;;;;2.97;0.80;;;9.70;99.90;;;;;;5027659;28;20038;-43
2022/11/04 13:43:36;;;;;;;5.90;0.50;;;9.40;99.90;;;;;;5027469;28;20045;-43
2022/11/04 13:45:53;;;;;;;4.38;0.73;;;8.90;99.90;;;;;;5027415;28;20077;-43
2022/11/04 13:48:23;;;;;;;4.50;0.50;;;9.20;99.90;;;;;;5027550;28;20038;-45